East Liberty, Ohio
Current Conditions -  °F | °C
As of 11:50 PM on Saturday 20 Dec 2014 (Local Time) from KEDJ Reporting Station
Overcast Overcast  
Wind Chill: 27°   Ceiling: 2400
Heat Index: 27°   Visibility: 7mi
Dew Point: 25°   Wind: 0mph
Humidity: 93%   Direction: NA
Pressure: 30.28"   Gusts: NA
Location:  40.33°N, 83.58°W
Report Text: KEDJ 210450Z AUTO 00000KT 7SM FEW017 OVC024 M03/M04 A3028 RMK AO1
Loading
Personal Weather Stations






























Interactive Weather Map New forecast layout! Learn more

10-Day Weather Forecast

Advertisements
Track Severe Weather on mobile